sensor_id;sensor_type;location;lat;lon;timestamp;P1;durP1;ratioP1;P2;durP2;ratioP2
1957;SDS011;979;51.076;13.748;2023-04-25T00:01:18;19.60;;;18.57;;
1957;SDS011;979;51.076;13.748;2023-04-25T00:03:48;20.20;;;19.23;;
1957;SDS011;979;51.076;13.748;2023-04-25T00:06:17;19.87;;;18.83;;
1957;SDS011;979;51.076;13.748;2023-04-25T00:08:46;20.13;;;19.23;;
1957;SDS011;979;51.076;13.748;2023-04-25T00:11:15;19.87;;;18.87;;
1957;SDS011;979;51.076;13.748;2023-04-25T00:13:45;20.17;;;18.97;;
1957;SDS011;979;51.076;13.748;2023-04-25T00:16:16;20.10;;;18.97;;
1957;SDS011;979;51.076;13.748;2023-04-25T00:18:45;19.83;;;19.03;;
1957;SDS011;979;51.076;13.748;2023-04-25T00:21:17;20.00;;;19.00;;
1957;SDS011;979;51.076;13.748;2023-04-25T00:23:46;20.40;;;19.40;;
1957;SDS011;979;51.076;13.748;2023-04-25T00:26:19;20.30;;;19.30;;
1957;SDS011;979;51.076;13.748;2023-04-25T00:28:50;20.60;;;19.50;;
1957;SDS011;979;51.076;13.748;2023-04-25T00:31:18;20.40;;;19.40;;
1957;SDS011;979;51.076;13.748;2023-04-25T00:33:47;20.00;;;19.03;;
1957;SDS011;979;51.076;13.748;2023-04-25T00:36:16;20.20;;;19.30;;
1957;SDS011;979;51.076;13.748;2023-04-25T00:38:44;20.90;;;19.67;;
1957;SDS011;979;51.076;13.748;2023-04-25T00:41:13;20.37;;;19.37;;
1957;SDS011;979;51.076;13.748;2023-04-25T00:43:42;20.40;;;19.40;;
1957;SDS011;979;51.076;13.748;2023-04-25T00:46:14;20.47;;;19.37;;
1957;SDS011;979;51.076;13.748;2023-04-25T00:48:42;21.40;;;20.00;;
1957;SDS011;979;51.076;13.748;2023-04-25T00:51:12;20.93;;;19.83;;
1957;SDS011;979;51.076;13.748;2023-04-25T00:53:44;21.17;;;19.87;;
1957;SDS011;979;51.076;13.748;2023-04-25T00:56:13;21.37;;;20.07;;
1957;SDS011;979;51.076;13.748;2023-04-25T00:58:42;21.40;;;19.73;;
1957;SDS011;979;51.076;13.748;2023-04-25T01:01:10;21.00;;;19.80;;
1957;SDS011;979;51.076;13.748;2023-04-25T01:03:41;20.63;;;19.37;;
1957;SDS011;979;51.076;13.748;2023-04-25T01:06:11;21.13;;;19.47;;
1957;SDS011;979;51.076;13.748;2023-04-25T01:08:42;20.67;;;19.70;;
1957;SDS011;979;51.076;13.748;2023-04-25T01:11:11;20.37;;;19.43;;
1957;SDS011;979;51.076;13.748;2023-04-25T01:13:39;21.47;;;20.37;;
1957;SDS011;979;51.076;13.748;2023-04-25T01:16:08;21.80;;;20.60;;
1957;SDS011;979;51.076;13.748;2023-04-25T01:18:38;21.27;;;20.10;;
1957;SDS011;979;51.076;13.748;2023-04-25T01:21:09;20.40;;;19.30;;
1957;SDS011;979;51.076;13.748;2023-04-25T01:23:40;21.20;;;20.00;;
1957;SDS011;979;51.076;13.748;2023-04-25T01:26:09;20.90;;;19.70;;
1957;SDS011;979;51.076;13.748;2023-04-25T01:28:39;19.67;;;18.77;;
1957;SDS011;979;51.076;13.748;2023-04-25T01:31:10;21.70;;;20.30;;
1957;SDS011;979;51.076;13.748;2023-04-25T01:33:39;20.57;;;19.37;;
1957;SDS011;979;51.076;13.748;2023-04-25T01:36:09;19.87;;;18.90;;
1957;SDS011;979;51.076;13.748;2023-04-25T01:38:38;20.60;;;19.60;;
1957;SDS011;979;51.076;13.748;2023-04-25T01:41:07;20.73;;;19.60;;
1957;SDS011;979;51.076;13.748;2023-04-25T01:43:36;21.70;;;20.40;;
1957;SDS011;979;51.076;13.748;2023-04-25T01:46:04;21.40;;;20.10;;
1957;SDS011;979;51.076;13.748;2023-04-25T01:48:33;21.53;;;20.13;;
1957;SDS011;979;51.076;13.748;2023-04-25T01:51:01;19.97;;;19.00;;
1957;SDS011;979;51.076;13.748;2023-04-25T01:53:31;21.50;;;20.30;;
1957;SDS011;979;51.076;13.748;2023-04-25T01:56:01;21.30;;;20.10;;
1957;SDS011;979;51.076;13.748;2023-04-25T01:58:33;21.33;;;20.03;;
1957;SDS011;979;51.076;13.748;2023-04-25T02:01:07;20.00;;;19.00;;
1957;SDS011;979;51.076;13.748;2023-04-25T02:03:42;21.93;;;20.73;;
1957;SDS011;979;51.076;13.748;2023-04-25T02:06:29;20.90;;;19.70;;
1957;SDS011;979;51.076;13.748;2023-04-25T02:09:00;21.07;;;19.80;;
1957;SDS011;979;51.076;13.748;2023-04-25T02:11:28;21.87;;;20.33;;
1957;SDS011;979;51.076;13.748;2023-04-25T02:14:17;22.13;;;20.83;;
1957;SDS011;979;51.076;13.748;2023-04-25T02:17:06;21.37;;;20.17;;
1957;SDS011;979;51.076;13.748;2023-04-25T02:19:35;21.37;;;20.07;;
1957;SDS011;979;51.076;13.748;2023-04-25T02:22:04;20.70;;;19.60;;
1957;SDS011;979;51.076;13.748;2023-04-25T02:24:34;20.63;;;19.63;;
1957;SDS011;979;51.076;13.748;2023-04-25T02:27:02;19.77;;;18.90;;
1957;SDS011;979;51.076;13.748;2023-04-25T02:29:31;21.30;;;20.20;;
1957;SDS011;979;51.076;13.748;2023-04-25T02:31:59;20.50;;;19.50;;
1957;SDS011;979;51.076;13.748;2023-04-25T02:34:28;22.30;;;20.80;;
1957;SDS011;979;51.076;13.748;2023-04-25T02:36:59;20.67;;;19.50;;
1957;SDS011;979;51.076;13.748;2023-04-25T02:39:28;21.43;;;20.23;;
1957;SDS011;979;51.076;13.748;2023-04-25T02:41:58;19.80;;;18.80;;
1957;SDS011;979;51.076;13.748;2023-04-25T02:44:28;20.80;;;19.70;;
1957;SDS011;979;51.076;13.748;2023-04-25T02:46:57;22.53;;;20.77;;
1957;SDS011;979;51.076;13.748;2023-04-25T02:49:25;21.20;;;20.00;;
1957;SDS011;979;51.076;13.748;2023-04-25T02:51:54;20.30;;;19.00;;
1957;SDS011;979;51.076;13.748;2023-04-25T02:54:22;19.33;;;18.47;;
1957;SDS011;979;51.076;13.748;2023-04-25T02:56:51;21.33;;;20.10;;
1957;SDS011;979;51.076;13.748;2023-04-25T02:59:26;22.23;;;20.90;;
1957;SDS011;979;51.076;13.748;2023-04-25T03:01:55;20.47;;;19.33;;
1957;SDS011;979;51.076;13.748;2023-04-25T03:04:23;21.47;;;19.87;;
1957;SDS011;979;51.076;13.748;2023-04-25T03:06:52;23.00;;;21.60;;
1957;SDS011;979;51.076;13.748;2023-04-25T03:09:21;21.10;;;19.70;;
1957;SDS011;979;51.076;13.748;2023-04-25T03:11:51;21.63;;;20.20;;
1957;SDS011;979;51.076;13.748;2023-04-25T03:14:20;20.63;;;19.30;;
1957;SDS011;979;51.076;13.748;2023-04-25T03:16:49;20.83;;;19.63;;
1957;SDS011;979;51.076;13.748;2023-04-25T03:19:18;21.30;;;20.10;;
1957;SDS011;979;51.076;13.748;2023-04-25T03:21:47;20.60;;;19.50;;
1957;SDS011;979;51.076;13.748;2023-04-25T03:24:16;20.27;;;19.07;;
1957;SDS011;979;51.076;13.748;2023-04-25T03:26:44;19.30;;;18.00;;
1957;SDS011;979;51.076;13.748;2023-04-25T03:29:13;20.53;;;19.30;;
1957;SDS011;979;51.076;13.748;2023-04-25T03:31:42;20.93;;;19.77;;
1957;SDS011;979;51.076;13.748;2023-04-25T03:34:14;20.53;;;19.43;;
1957;SDS011;979;51.076;13.748;2023-04-25T03:36:43;20.47;;;18.90;;
1957;SDS011;979;51.076;13.748;2023-04-25T03:39:12;20.20;;;19.20;;
1957;SDS011;979;51.076;13.748;2023-04-25T03:41:46;21.07;;;20.07;;
1957;SDS011;979;51.076;13.748;2023-04-25T03:44:16;20.30;;;19.10;;
1957;SDS011;979;51.076;13.748;2023-04-25T03:46:45;20.03;;;19.00;;
1957;SDS011;979;51.076;13.748;2023-04-25T03:49:15;21.17;;;19.97;;
1957;SDS011;979;51.076;13.748;2023-04-25T03:52:05;22.03;;;20.50;;
1957;SDS011;979;51.076;13.748;2023-04-25T03:54:37;21.53;;;20.17;;
1957;SDS011;979;51.076;13.748;2023-04-25T03:57:15;21.10;;;20.00;;
1957;SDS011;979;51.076;13.748;2023-04-25T03:59:44;21.40;;;19.87;;
1957;SDS011;979;51.076;13.748;2023-04-25T04:02:17;21.67;;;20.17;;
1957;SDS011;979;51.076;13.748;2023-04-25T04:08:56;21.70;;;19.90;;
1957;SDS011;979;51.076;13.748;2023-04-25T04:12:01;21.67;;;20.37;;
1957;SDS011;979;51.076;13.748;2023-04-25T04:18:25;21.27;;;20.00;;
1957;SDS011;979;51.076;13.748;2023-04-25T04:21:48;20.37;;;19.27;;
1957;SDS011;979;51.076;13.748;2023-04-25T04:28:52;21.93;;;20.43;;
1957;SDS011;979;51.076;13.748;2023-04-25T04:31:45;20.20;;;19.00;;
1957;SDS011;979;51.076;13.748;2023-04-25T04:35:00;21.63;;;20.17;;
1957;SDS011;979;51.076;13.748;2023-04-25T04:37:57;21.67;;;20.07;;
1957;SDS011;979;51.076;13.748;2023-04-25T04:40:34;21.60;;;20.37;;
1957;SDS011;979;51.076;13.748;2023-04-25T04:43:30;23.20;;;21.50;;
1957;SDS011;979;51.076;13.748;2023-04-25T04:46:21;21.33;;;20.13;;
1957;SDS011;979;51.076;13.748;2023-04-25T04:49:31;20.53;;;18.90;;
1957;SDS011;979;51.076;13.748;2023-04-25T04:52:42;21.00;;;19.47;;
1957;SDS011;979;51.076;13.748;2023-04-25T04:55:46;19.43;;;18.50;;
1957;SDS011;979;51.076;13.748;2023-04-25T04:59:16;21.73;;;20.23;;
1957;SDS011;979;51.076;13.748;2023-04-25T05:02:38;21.37;;;20.27;;
1957;SDS011;979;51.076;13.748;2023-04-25T05:06:15;21.63;;;20.40;;
1957;SDS011;979;51.076;13.748;2023-04-25T05:09:32;21.37;;;20.13;;
1957;SDS011;979;51.076;13.748;2023-04-25T05:13:07;20.87;;;19.87;;
1957;SDS011;979;51.076;13.748;2023-04-25T05:16:26;19.53;;;18.30;;
1957;SDS011;979;51.076;13.748;2023-04-25T05:19:35;20.73;;;19.37;;
1957;SDS011;979;51.076;13.748;2023-04-25T05:22:41;20.80;;;19.50;;
1957;SDS011;979;51.076;13.748;2023-04-25T05:25:59;21.17;;;19.87;;
1957;SDS011;979;51.076;13.748;2023-04-25T05:29:12;21.30;;;20.10;;
1957;SDS011;979;51.076;13.748;2023-04-25T05:32:13;20.23;;;19.13;;
1957;SDS011;979;51.076;13.748;2023-04-25T05:35:26;21.63;;;20.20;;
1957;SDS011;979;51.076;13.748;2023-04-25T05:38:36;20.53;;;19.43;;
1957;SDS011;979;51.076;13.748;2023-04-25T05:41:44;22.03;;;20.43;;
1957;SDS011;979;51.076;13.748;2023-04-25T05:45:32;21.53;;;20.07;;
1957;SDS011;979;51.076;13.748;2023-04-25T05:48:45;20.63;;;19.47;;
1957;SDS011;979;51.076;13.748;2023-04-25T05:52:13;20.80;;;19.50;;
1957;SDS011;979;51.076;13.748;2023-04-25T05:55:47;22.43;;;21.03;;
1957;SDS011;979;51.076;13.748;2023-04-25T05:58:55;19.83;;;18.50;;
1957;SDS011;979;51.076;13.748;2023-04-25T06:05:27;21.40;;;20.00;;
1957;SDS011;979;51.076;13.748;2023-04-25T06:08:34;21.50;;;20.10;;
1957;SDS011;979;51.076;13.748;2023-04-25T06:12:02;19.73;;;18.73;;
1957;SDS011;979;51.076;13.748;2023-04-25T06:14:57;21.80;;;20.43;;
1957;SDS011;979;51.076;13.748;2023-04-25T06:18:14;19.40;;;18.50;;
1957;SDS011;979;51.076;13.748;2023-04-25T06:20:57;21.63;;;20.27;;
1957;SDS011;979;51.076;13.748;2023-04-25T06:24:09;21.53;;;20.07;;
1957;SDS011;979;51.076;13.748;2023-04-25T06:27:22;21.47;;;20.07;;
1957;SDS011;979;51.076;13.748;2023-04-25T06:33:32;20.77;;;19.67;;
1957;SDS011;979;51.076;13.748;2023-04-25T06:36:25;21.57;;;20.13;;
1957;SDS011;979;51.076;13.748;2023-04-25T06:39:14;21.50;;;20.20;;
1957;SDS011;979;51.076;13.748;2023-04-25T06:42:13;22.13;;;20.43;;
1957;SDS011;979;51.076;13.748;2023-04-25T06:45:36;22.50;;;20.80;;
1957;SDS011;979;51.076;13.748;2023-04-25T06:48:47;20.90;;;19.80;;
1957;SDS011;979;51.076;13.748;2023-04-25T06:51:40;22.13;;;20.03;;
1957;SDS011;979;51.076;13.748;2023-04-25T06:54:57;21.43;;;20.20;;
1957;SDS011;979;51.076;13.748;2023-04-25T06:58:12;21.10;;;19.87;;
1957;SDS011;979;51.076;13.748;2023-04-25T07:01:39;20.40;;;19.33;;
1957;SDS011;979;51.076;13.748;2023-04-25T07:04:40;21.03;;;20.13;;
1957;SDS011;979;51.076;13.748;2023-04-25T07:07:29;19.53;;;18.67;;
1957;SDS011;979;51.076;13.748;2023-04-25T07:10:13;21.40;;;20.23;;
1957;SDS011;979;51.076;13.748;2023-04-25T07:12:46;20.40;;;19.30;;
1957;SDS011;979;51.076;13.748;2023-04-25T07:15:15;21.57;;;20.37;;
1957;SDS011;979;51.076;13.748;2023-04-25T07:17:46;20.60;;;19.60;;
1957;SDS011;979;51.076;13.748;2023-04-25T07:20:18;20.80;;;19.80;;
1957;SDS011;979;51.076;13.748;2023-04-25T07:22:55;20.27;;;19.00;;
1957;SDS011;979;51.076;13.748;2023-04-25T07:25:33;20.60;;;19.40;;
1957;SDS011;979;51.076;13.748;2023-04-25T07:28:12;21.47;;;20.20;;
1957;SDS011;979;51.076;13.748;2023-04-25T07:30:55;20.27;;;19.23;;
1957;SDS011;979;51.076;13.748;2023-04-25T07:34:06;20.07;;;19.10;;
1957;SDS011;979;51.076;13.748;2023-04-25T07:36:55;21.33;;;19.90;;
1957;SDS011;979;51.076;13.748;2023-04-25T07:40:11;20.10;;;19.20;;
1957;SDS011;979;51.076;13.748;2023-04-25T07:43:16;19.90;;;18.70;;
1957;SDS011;979;51.076;13.748;2023-04-25T07:46:35;19.83;;;18.87;;
1957;SDS011;979;51.076;13.748;2023-04-25T07:49:49;21.97;;;20.43;;
1957;SDS011;979;51.076;13.748;2023-04-25T07:53:02;20.37;;;19.13;;
1957;SDS011;979;51.076;13.748;2023-04-25T07:55:48;20.70;;;19.70;;
1957;SDS011;979;51.076;13.748;2023-04-25T07:58:43;19.17;;;18.23;;
1957;SDS011;979;51.076;13.748;2023-04-25T08:01:20;19.23;;;18.40;;
1957;SDS011;979;51.076;13.748;2023-04-25T08:04:04;19.67;;;18.67;;
1957;SDS011;979;51.076;13.748;2023-04-25T08:06:57;20.80;;;19.60;;
1957;SDS011;979;51.076;13.748;2023-04-25T08:10:07;21.87;;;20.67;;
1957;SDS011;979;51.076;13.748;2023-04-25T08:13:02;21.60;;;20.00;;
1957;SDS011;979;51.076;13.748;2023-04-25T08:15:52;19.80;;;18.60;;
1957;SDS011;979;51.076;13.748;2023-04-25T08:18:37;21.10;;;19.77;;
1957;SDS011;979;51.076;13.748;2023-04-25T08:21:36;20.50;;;19.50;;
1957;SDS011;979;51.076;13.748;2023-04-25T08:24:33;20.20;;;19.30;;
1957;SDS011;979;51.076;13.748;2023-04-25T08:27:29;21.03;;;20.03;;
1957;SDS011;979;51.076;13.748;2023-04-25T08:30:14;22.30;;;20.80;;
1957;SDS011;979;51.076;13.748;2023-04-25T08:33:02;20.43;;;19.33;;
1957;SDS011;979;51.076;13.748;2023-04-25T08:36:02;20.87;;;19.97;;
1957;SDS011;979;51.076;13.748;2023-04-25T08:38:59;21.13;;;20.03;;
1957;SDS011;979;51.076;13.748;2023-04-25T08:41:50;22.03;;;20.93;;
1957;SDS011;979;51.076;13.748;2023-04-25T08:48:14;20.03;;;19.03;;
1957;SDS011;979;51.076;13.748;2023-04-25T08:51:44;22.30;;;21.00;;
1957;SDS011;979;51.076;13.748;2023-04-25T08:54:49;21.77;;;20.57;;
1957;SDS011;979;51.076;13.748;2023-04-25T08:58:11;20.87;;;19.90;;
1957;SDS011;979;51.076;13.748;2023-04-25T09:01:22;22.63;;;21.23;;
1957;SDS011;979;51.076;13.748;2023-04-25T09:04:11;21.30;;;20.17;;
1957;SDS011;979;51.076;13.748;2023-04-25T09:07:03;22.37;;;21.00;;
1957;SDS011;979;51.076;13.748;2023-04-25T09:10:05;22.43;;;21.13;;
1957;SDS011;979;51.076;13.748;2023-04-25T09:13:09;22.60;;;21.60;;
1957;SDS011;979;51.076;13.748;2023-04-25T09:16:17;22.60;;;21.43;;
1957;SDS011;979;51.076;13.748;2023-04-25T09:19:22;23.07;;;21.80;;
1957;SDS011;979;51.076;13.748;2023-04-25T09:22:32;23.30;;;21.83;;
1957;SDS011;979;51.076;13.748;2023-04-25T09:28:56;22.00;;;20.90;;
1957;SDS011;979;51.076;13.748;2023-04-25T09:32:15;22.20;;;21.00;;
1957;SDS011;979;51.076;13.748;2023-04-25T09:35:43;23.00;;;21.80;;
1957;SDS011;979;51.076;13.748;2023-04-25T09:38:41;22.23;;;20.93;;
1957;SDS011;979;51.076;13.748;2023-04-25T09:41:36;23.37;;;22.10;;
1957;SDS011;979;51.076;13.748;2023-04-25T09:44:24;21.93;;;20.83;;
1957;SDS011;979;51.076;13.748;2023-04-25T09:47:11;22.50;;;21.50;;
1957;SDS011;979;51.076;13.748;2023-04-25T09:49:56;22.83;;;21.63;;
1957;SDS011;979;51.076;13.748;2023-04-25T09:53:08;22.37;;;20.97;;
1957;SDS011;979;51.076;13.748;2023-04-25T09:56:08;23.67;;;22.27;;
1957;SDS011;979;51.076;13.748;2023-04-25T09:58:39;22.30;;;21.10;;
1957;SDS011;979;51.076;13.748;2023-04-25T10:01:11;22.10;;;20.90;;
1957;SDS011;979;51.076;13.748;2023-04-25T10:03:57;21.27;;;20.27;;
1957;SDS011;979;51.076;13.748;2023-04-25T10:06:46;20.40;;;19.37;;
1957;SDS011;979;51.076;13.748;2023-04-25T10:09:26;21.40;;;20.40;;
1957;SDS011;979;51.076;13.748;2023-04-25T10:12:17;19.87;;;18.97;;
1957;SDS011;979;51.076;13.748;2023-04-25T10:14:51;18.90;;;18.00;;
1957;SDS011;979;51.076;13.748;2023-04-25T10:17:34;20.53;;;19.53;;
1957;SDS011;979;51.076;13.748;2023-04-25T10:20:25;21.17;;;19.97;;
1957;SDS011;979;51.076;13.748;2023-04-25T10:23:37;20.97;;;19.87;;
1957;SDS011;979;51.076;13.748;2023-04-25T10:26:21;20.40;;;19.40;;
1957;SDS011;979;51.076;13.748;2023-04-25T10:29:21;21.40;;;19.97;;
1957;SDS011;979;51.076;13.748;2023-04-25T10:32:03;21.30;;;20.10;;
1957;SDS011;979;51.076;13.748;2023-04-25T10:34:38;21.27;;;20.27;;
1957;SDS011;979;51.076;13.748;2023-04-25T10:37:13;21.30;;;20.30;;
1957;SDS011;979;51.076;13.748;2023-04-25T10:40:09;22.90;;;21.70;;
1957;SDS011;979;51.076;13.748;2023-04-25T10:43:33;23.57;;;22.17;;
1957;SDS011;979;51.076;13.748;2023-04-25T10:46:30;21.50;;;20.50;;
1957;SDS011;979;51.076;13.748;2023-04-25T10:49:08;22.77;;;21.57;;
1957;SDS011;979;51.076;13.748;2023-04-25T10:52:25;22.27;;;21.10;;
1957;SDS011;979;51.076;13.748;2023-04-25T10:55:08;22.43;;;21.13;;
1957;SDS011;979;51.076;13.748;2023-04-25T10:58:03;24.33;;;23.00;;
1957;SDS011;979;51.076;13.748;2023-04-25T11:00:59;23.73;;;22.20;;
1957;SDS011;979;51.076;13.748;2023-04-25T11:03:56;24.07;;;22.50;;
1957;SDS011;979;51.076;13.748;2023-04-25T11:07:07;23.70;;;22.30;;
1957;SDS011;979;51.076;13.748;2023-04-25T11:10:38;23.13;;;21.80;;
1957;SDS011;979;51.076;13.748;2023-04-25T11:13:55;23.73;;;22.10;;
1957;SDS011;979;51.076;13.748;2023-04-25T11:16:49;23.90;;;22.27;;
1957;SDS011;979;51.076;13.748;2023-04-25T11:19:36;22.57;;;21.43;;
1957;SDS011;979;51.076;13.748;2023-04-25T11:22:23;23.80;;;22.13;;
1957;SDS011;979;51.076;13.748;2023-04-25T11:25:22;22.60;;;21.03;;
1957;SDS011;979;51.076;13.748;2023-04-25T11:31:21;22.60;;;21.30;;
1957;SDS011;979;51.076;13.748;2023-04-25T11:33:54;23.27;;;21.60;;
1957;SDS011;979;51.076;13.748;2023-04-25T11:36:52;21.30;;;20.20;;
1957;SDS011;979;51.076;13.748;2023-04-25T11:39:47;19.73;;;18.93;;
1957;SDS011;979;51.076;13.748;2023-04-25T11:43:00;18.33;;;17.73;;
1957;SDS011;979;51.076;13.748;2023-04-25T11:45:39;18.97;;;18.30;;
1957;SDS011;979;51.076;13.748;2023-04-25T11:48:13;18.70;;;18.10;;
1957;SDS011;979;51.076;13.748;2023-04-25T11:50:44;19.73;;;18.93;;
1957;SDS011;979;51.076;13.748;2023-04-25T11:53:23;19.70;;;19.00;;
1957;SDS011;979;51.076;13.748;2023-04-25T11:55:54;18.57;;;17.87;;
1957;SDS011;979;51.076;13.748;2023-04-25T11:58:26;19.83;;;18.90;;
1957;SDS011;979;51.076;13.748;2023-04-25T12:00:58;19.87;;;18.97;;
1957;SDS011;979;51.076;13.748;2023-04-25T12:03:29;19.30;;;18.50;;
1957;SDS011;979;51.076;13.748;2023-04-25T12:06:02;19.93;;;19.17;;
1957;SDS011;979;51.076;13.748;2023-04-25T12:08:34;20.53;;;19.53;;
1957;SDS011;979;51.076;13.748;2023-04-25T12:11:03;19.80;;;18.90;;
1957;SDS011;979;51.076;13.748;2023-04-25T12:13:32;20.77;;;19.43;;
1957;SDS011;979;51.076;13.748;2023-04-25T12:16:00;20.13;;;19.23;;
1957;SDS011;979;51.076;13.748;2023-04-25T12:18:30;20.20;;;19.13;;
1957;SDS011;979;51.076;13.748;2023-04-25T12:20:59;21.10;;;19.70;;
1957;SDS011;979;51.076;13.748;2023-04-25T12:23:28;22.27;;;20.33;;
1957;SDS011;979;51.076;13.748;2023-04-25T12:25:56;19.47;;;18.63;;
1957;SDS011;979;51.076;13.748;2023-04-25T12:28:25;20.37;;;19.17;;
1957;SDS011;979;51.076;13.748;2023-04-25T12:31:00;21.40;;;20.03;;
1957;SDS011;979;51.076;13.748;2023-04-25T12:33:34;21.30;;;20.20;;
1957;SDS011;979;51.076;13.748;2023-04-25T12:36:04;21.30;;;19.67;;
1957;SDS011;979;51.076;13.748;2023-04-25T12:38:38;20.93;;;19.57;;
1957;SDS011;979;51.076;13.748;2023-04-25T12:41:12;21.40;;;19.93;;
1957;SDS011;979;51.076;13.748;2023-04-25T12:43:42;23.17;;;21.67;;
1957;SDS011;979;51.076;13.748;2023-04-25T12:46:18;21.53;;;20.33;;
1957;SDS011;979;51.076;13.748;2023-04-25T12:48:54;21.10;;;19.60;;
1957;SDS011;979;51.076;13.748;2023-04-25T12:51:42;21.80;;;20.40;;
1957;SDS011;979;51.076;13.748;2023-04-25T12:54:16;20.10;;;19.10;;
1957;SDS011;979;51.076;13.748;2023-04-25T12:56:55;20.83;;;19.50;;
1957;SDS011;979;51.076;13.748;2023-04-25T12:59:32;21.40;;;20.30;;
1957;SDS011;979;51.076;13.748;2023-04-25T13:02:11;22.50;;;21.10;;
1957;SDS011;979;51.076;13.748;2023-04-25T13:04:50;21.10;;;20.00;;
1957;SDS011;979;51.076;13.748;2023-04-25T13:07:19;21.30;;;20.03;;
1957;SDS011;979;51.076;13.748;2023-04-25T13:09:52;21.87;;;20.80;;
1957;SDS011;979;51.076;13.748;2023-04-25T13:12:31;21.70;;;20.30;;
1957;SDS011;979;51.076;13.748;2023-04-25T13:15:08;22.93;;;21.00;;
1957;SDS011;979;51.076;13.748;2023-04-25T13:17:50;22.03;;;20.53;;
1957;SDS011;979;51.076;13.748;2023-04-25T13:20:36;22.20;;;20.60;;
1957;SDS011;979;51.076;13.748;2023-04-25T13:23:21;21.80;;;20.10;;
1957;SDS011;979;51.076;13.748;2023-04-25T13:26:11;21.83;;;20.43;;
1957;SDS011;979;51.076;13.748;2023-04-25T13:29:05;21.90;;;20.60;;
1957;SDS011;979;51.076;13.748;2023-04-25T13:31:42;21.27;;;19.83;;
1957;SDS011;979;51.076;13.748;2023-04-25T13:34:22;21.40;;;20.03;;
1957;SDS011;979;51.076;13.748;2023-04-25T13:39:39;20.90;;;19.60;;
1957;SDS011;979;51.076;13.748;2023-04-25T13:42:07;20.63;;;19.37;;
1957;SDS011;979;51.076;13.748;2023-04-25T13:44:40;21.33;;;20.03;;
1957;SDS011;979;51.076;13.748;2023-04-25T13:47:14;19.70;;;18.33;;
1957;SDS011;979;51.076;13.748;2023-04-25T13:49:48;20.60;;;19.30;;
1957;SDS011;979;51.076;13.748;2023-04-25T13:52:30;20.40;;;19.10;;
1957;SDS011;979;51.076;13.748;2023-04-25T13:55:05;20.13;;;18.90;;
1957;SDS011;979;51.076;13.748;2023-04-25T13:57:35;20.33;;;19.07;;
1957;SDS011;979;51.076;13.748;2023-04-25T14:00:19;21.93;;;20.00;;
1957;SDS011;979;51.076;13.748;2023-04-25T14:02:53;21.40;;;20.10;;
1957;SDS011;979;51.076;13.748;2023-04-25T14:05:39;20.70;;;19.60;;
1957;SDS011;979;51.076;13.748;2023-04-25T14:08:23;21.80;;;20.20;;
1957;SDS011;979;51.076;13.748;2023-04-25T14:11:12;21.23;;;19.73;;
1957;SDS011;979;51.076;13.748;2023-04-25T14:13:46;21.17;;;19.63;;
1957;SDS011;979;51.076;13.748;2023-04-25T14:16:22;21.53;;;20.23;;
1957;SDS011;979;51.076;13.748;2023-04-25T14:18:53;21.33;;;19.40;;
1957;SDS011;979;51.076;13.748;2023-04-25T14:21:28;22.90;;;20.83;;
1957;SDS011;979;51.076;13.748;2023-04-25T14:24:02;23.17;;;21.20;;
1957;SDS011;979;51.076;13.748;2023-04-25T14:26:38;24.10;;;22.53;;
1957;SDS011;979;51.076;13.748;2023-04-25T14:29:13;21.57;;;19.90;;
1957;SDS011;979;51.076;13.748;2023-04-25T14:31:50;20.80;;;19.63;;
1957;SDS011;979;51.076;13.748;2023-04-25T14:34:28;22.13;;;20.37;;
1957;SDS011;979;51.076;13.748;2023-04-25T14:40:45;20.67;;;19.53;;
1957;SDS011;979;51.076;13.748;2023-04-25T14:43:15;20.73;;;19.43;;
1957;SDS011;979;51.076;13.748;2023-04-25T14:45:55;19.10;;;18.20;;
1957;SDS011;979;51.076;13.748;2023-04-25T14:48:34;18.50;;;17.50;;
1957;SDS011;979;51.076;13.748;2023-04-25T14:51:09;20.10;;;18.90;;
1957;SDS011;979;51.076;13.748;2023-04-25T14:53:43;21.10;;;19.80;;
1957;SDS011;979;51.076;13.748;2023-04-25T14:56:21;20.80;;;19.17;;
1957;SDS011;979;51.076;13.748;2023-04-25T14:58:52;20.00;;;18.90;;
1957;SDS011;979;51.076;13.748;2023-04-25T15:01:29;21.57;;;20.00;;
1957;SDS011;979;51.076;13.748;2023-04-25T15:04:09;18.93;;;17.80;;
1957;SDS011;979;51.076;13.748;2023-04-25T15:06:43;19.70;;;18.20;;
1957;SDS011;979;51.076;13.748;2023-04-25T15:09:30;17.83;;;17.13;;
1957;SDS011;979;51.076;13.748;2023-04-25T15:12:14;19.63;;;18.13;;
1957;SDS011;979;51.076;13.748;2023-04-25T15:14:45;19.30;;;18.13;;
1957;SDS011;979;51.076;13.748;2023-04-25T15:17:33;22.40;;;21.00;;
1957;SDS011;979;51.076;13.748;2023-04-25T15:20:53;18.13;;;17.00;;
1957;SDS011;979;51.076;13.748;2023-04-25T15:23:31;18.03;;;16.90;;
1957;SDS011;979;51.076;13.748;2023-04-25T15:26:23;18.57;;;17.50;;
1957;SDS011;979;51.076;13.748;2023-04-25T15:29:01;17.57;;;16.57;;
1957;SDS011;979;51.076;13.748;2023-04-25T15:31:43;17.10;;;16.40;;
1957;SDS011;979;51.076;13.748;2023-04-25T15:34:16;17.00;;;16.30;;
1957;SDS011;979;51.076;13.748;2023-04-25T15:36:48;17.37;;;16.47;;
1957;SDS011;979;51.076;13.748;2023-04-25T15:39:31;17.90;;;16.53;;
1957;SDS011;979;51.076;13.748;2023-04-25T15:42:06;17.60;;;16.50;;
1957;SDS011;979;51.076;13.748;2023-04-25T15:44:49;17.63;;;16.83;;
1957;SDS011;979;51.076;13.748;2023-04-25T15:47:23;17.90;;;16.90;;
1957;SDS011;979;51.076;13.748;2023-04-25T15:49:57;17.50;;;16.53;;
1957;SDS011;979;51.076;13.748;2023-04-25T15:52:40;16.80;;;16.07;;
1957;SDS011;979;51.076;13.748;2023-04-25T16:02:38;17.00;;;15.93;;
1957;SDS011;979;51.076;13.748;2023-04-25T16:05:22;17.93;;;17.23;;
1957;SDS011;979;51.076;13.748;2023-04-25T16:08:01;17.73;;;16.80;;
1957;SDS011;979;51.076;13.748;2023-04-25T16:11:07;18.93;;;17.83;;
1957;SDS011;979;51.076;13.748;2023-04-25T16:17:14;18.00;;;16.90;;
1957;SDS011;979;51.076;13.748;2023-04-25T16:20:20;19.30;;;18.00;;
1957;SDS011;979;51.076;13.748;2023-04-25T16:34:43;18.20;;;17.40;;
1957;SDS011;979;51.076;13.748;2023-04-25T16:37:31;17.53;;;16.63;;
1957;SDS011;979;51.076;13.748;2023-04-25T16:40:04;18.17;;;17.27;;
1957;SDS011;979;51.076;13.748;2023-04-25T16:43:02;18.10;;;17.10;;
1957;SDS011;979;51.076;13.748;2023-04-25T16:45:41;17.10;;;16.33;;
1957;SDS011;979;51.076;13.748;2023-04-25T16:48:41;18.13;;;17.23;;
1957;SDS011;979;51.076;13.748;2023-04-25T16:51:19;17.60;;;16.60;;
1957;SDS011;979;51.076;13.748;2023-04-25T16:53:56;18.07;;;17.07;;
1957;SDS011;979;51.076;13.748;2023-04-25T16:56:40;15.93;;;15.23;;
1957;SDS011;979;51.076;13.748;2023-04-25T16:59:12;16.90;;;16.30;;
1957;SDS011;979;51.076;13.748;2023-04-25T17:01:40;17.67;;;16.87;;
1957;SDS011;979;51.076;13.748;2023-04-25T17:04:12;18.77;;;17.67;;
1957;SDS011;979;51.076;13.748;2023-04-25T17:06:43;18.23;;;17.10;;
1957;SDS011;979;51.076;13.748;2023-04-25T17:12:36;16.90;;;16.13;;
1957;SDS011;979;51.076;13.748;2023-04-25T17:15:08;17.27;;;16.47;;
1957;SDS011;979;51.076;13.748;2023-04-25T17:17:39;16.73;;;16.13;;
1957;SDS011;979;51.076;13.748;2023-04-25T17:20:10;17.03;;;16.07;;
1957;SDS011;979;51.076;13.748;2023-04-25T17:22:39;16.57;;;15.80;;
1957;SDS011;979;51.076;13.748;2023-04-25T17:25:38;17.20;;;16.17;;
1957;SDS011;979;51.076;13.748;2023-04-25T17:28:08;15.93;;;15.33;;
1957;SDS011;979;51.076;13.748;2023-04-25T17:31:15;17.57;;;16.83;;
1957;SDS011;979;51.076;13.748;2023-04-25T17:33:49;17.83;;;16.93;;